createdAt,value
2022-10-31T00:01:46.499Z,96.19
2022-10-31T00:04:13.573Z,96.02
2022-10-31T00:06:40.431Z,95.98
2022-10-31T00:09:07.581Z,95.92
2022-10-31T00:11:34.466Z,96.23
2022-10-31T00:14:01.403Z,96.24
2022-10-31T00:16:28.801Z,96.79
2022-10-31T00:18:57.497Z,97.09
2022-10-31T00:21:25.070Z,97.20
2022-10-31T00:23:52.312Z,97.24
2022-10-31T00:26:19.688Z,97.49
2022-10-31T00:28:46.869Z,97.29
2022-10-31T00:31:14.301Z,97.17
2022-10-31T00:33:41.853Z,97.11
2022-10-31T00:36:09.313Z,97.33
2022-10-31T00:38:36.254Z,97.55
2022-10-31T00:41:03.211Z,97.22
2022-10-31T00:43:30.143Z,96.97
2022-10-31T00:45:57.135Z,97.29
2022-10-31T00:48:24.051Z,97.65
2022-10-31T00:50:51.044Z,97.73
2022-10-31T00:53:17.951Z,97.78
2022-10-31T00:55:45.063Z,97.81
2022-10-31T00:58:12.144Z,97.67
2022-10-31T01:00:40.812Z,97.64
2022-10-31T01:03:07.712Z,97.33
2022-10-31T01:05:34.776Z,97.49
2022-10-31T01:08:01.687Z,97.64
2022-10-31T01:10:29.810Z,97.70
2022-10-31T01:12:57.060Z,97.81
2022-10-31T01:15:24.090Z,97.47
2022-10-31T01:17:51.024Z,97.48
2022-10-31T01:20:20.139Z,97.89
2022-10-31T01:22:48.308Z,98.14
2022-10-31T01:25:15.167Z,97.94
2022-10-31T01:27:42.135Z,97.92
2022-10-31T01:30:09.442Z,98.22
2022-10-31T01:32:36.332Z,98.26
2022-10-31T01:35:03.577Z,98.58
2022-10-31T01:37:31.835Z,98.70
2022-10-31T01:39:58.699Z,98.51
2022-10-31T01:42:25.575Z,98.25
2022-10-31T01:44:53.827Z,98.30
2022-10-31T01:47:22.834Z,98.20
2022-10-31T01:49:52.919Z,98.28
2022-10-31T01:52:22.771Z,98.69
2022-10-31T01:54:53.188Z,99.04
2022-10-31T01:57:22.363Z,98.63
2022-10-31T01:59:50.924Z,98.65
2022-10-31T02:02:18.887Z,98.89
2022-10-31T02:04:46.400Z,99.10
2022-10-31T02:07:16.372Z,99.14
2022-10-31T02:09:44.557Z,99.22
2022-10-31T02:12:12.026Z,99.07
2022-10-31T02:14:39.246Z,99.21
2022-10-31T02:17:06.126Z,99.74
2022-10-31T02:19:34.595Z,99.97
2022-10-31T02:22:07.025Z,99.78
2022-10-31T02:24:37.095Z,99.61
2022-10-31T02:27:07.014Z,99.44
2022-10-31T02:29:34.257Z,99.35
2022-10-31T02:32:09.653Z,99.22
2022-10-31T02:34:39.734Z,99.51
2022-10-31T02:37:09.824Z,99.63
2022-10-31T02:39:37.147Z,99.42
2022-10-31T02:42:09.249Z,99.43
2022-10-31T02:44:37.548Z,99.43
2022-10-31T02:47:07.891Z,99.12
2022-10-31T02:49:39.884Z,98.95
2022-10-31T02:52:09.994Z,99.27
2022-10-31T02:54:37.024Z,99.05
2022-10-31T02:57:06.818Z,99.12
2022-10-31T02:59:35.098Z,99.15
2022-10-31T03:02:02.596Z,99.54
2022-10-31T03:04:32.696Z,99.48
2022-10-31T03:07:02.622Z,99.34
2022-10-31T03:09:32.848Z,99.15
2022-10-31T03:12:02.900Z,99.17
2022-10-31T03:14:37.931Z,99.39
2022-10-31T03:17:06.696Z,99.37
2022-10-31T03:19:39.349Z,99.59
2022-10-31T03:22:11.691Z,99.76
2022-10-31T03:24:39.868Z,99.71
2022-10-31T03:27:09.021Z,99.84
2022-10-31T03:29:36.666Z,99.68
2022-10-31T03:32:07.101Z,99.80
2022-10-31T03:34:34.583Z,99.71
2022-10-31T03:37:03.357Z,99.56
2022-10-31T03:39:31.286Z,99.55
2022-10-31T03:42:01.496Z,99.66
2022-10-31T03:44:29.362Z,99.54
2022-10-31T03:46:56.410Z,99.42
2022-10-31T03:49:23.459Z,99.64
2022-10-31T03:51:50.647Z,99.64
2022-10-31T03:54:20.487Z,99.74
2022-10-31T03:56:52.315Z,99.77
2022-10-31T03:59:22.222Z,99.81
2022-10-31T04:01:52.063Z,99.85
2022-10-31T04:04:20.386Z,100.00
2022-10-31T04:06:48.520Z,99.86
2022-10-31T04:09:16.478Z,99.79
2022-10-31T04:11:47.366Z,99.87
2022-10-31T04:14:14.181Z,99.83
2022-10-31T04:16:43.946Z,99.39
2022-10-31T04:19:12.557Z,99.56
2022-10-31T04:21:39.362Z,99.89
2022-10-31T04:24:06.624Z,99.88
2022-10-31T04:26:33.505Z,99.77
2022-10-31T04:29:00.466Z,99.90
2022-10-31T04:31:27.276Z,100.00
2022-10-31T04:33:54.107Z,100.00
2022-10-31T04:36:20.908Z,100.00
2022-10-31T04:38:47.716Z,100.00
2022-10-31T04:41:15.806Z,100.00
2022-10-31T04:43:42.601Z,100.00
2022-10-31T04:46:09.418Z,100.00
2022-10-31T04:48:36.227Z,100.00
2022-10-31T04:51:03.015Z,100.00
2022-10-31T04:53:30.238Z,100.00
2022-10-31T04:55:59.186Z,100.00
2022-10-31T04:58:25.968Z,100.00
2022-10-31T05:00:53.466Z,100.00
2022-10-31T05:03:20.718Z,100.00
2022-10-31T05:05:47.706Z,100.00
2022-10-31T05:08:14.830Z,100.00
2022-10-31T05:10:41.658Z,100.00
2022-10-31T05:13:09.168Z,100.00
2022-10-31T05:15:36.082Z,100.00
2022-10-31T05:18:03.367Z,100.00
2022-10-31T05:20:31.426Z,100.00
2022-10-31T05:22:58.859Z,100.00
2022-10-31T05:25:27.573Z,100.00
2022-10-31T05:27:55.218Z,100.00
2022-10-31T05:30:23.728Z,100.00
2022-10-31T05:32:51.179Z,100.00
2022-10-31T05:35:19.782Z,100.00
2022-10-31T05:37:46.621Z,100.00
2022-10-31T05:40:14.765Z,100.00
2022-10-31T05:42:41.938Z,100.00
2022-10-31T05:45:10.406Z,100.00
2022-10-31T05:47:37.194Z,100.00
2022-10-31T05:50:04.711Z,100.00
2022-10-31T05:52:31.511Z,100.00
2022-10-31T05:54:58.548Z,100.00
2022-10-31T05:57:25.401Z,100.00
2022-10-31T05:59:55.309Z,100.00
2022-10-31T06:02:22.355Z,100.00
2022-10-31T06:04:50.491Z,100.00
2022-10-31T06:07:17.356Z,100.00
2022-10-31T06:09:44.225Z,100.00
2022-10-31T06:12:11.045Z,100.00
2022-10-31T06:14:37.949Z,100.00
2022-10-31T06:17:04.779Z,100.00
2022-10-31T06:19:31.557Z,100.00
2022-10-31T06:21:58.334Z,100.00
2022-10-31T06:24:25.129Z,100.00
2022-10-31T06:26:52.008Z,100.00
2022-10-31T06:29:18.842Z,100.00
2022-10-31T06:31:45.647Z,100.00
2022-10-31T06:34:12.611Z,100.00
2022-10-31T06:36:39.572Z,100.00
2022-10-31T06:39:06.435Z,100.00
2022-10-31T06:41:33.221Z,100.00
2022-10-31T06:44:03.466Z,100.00
2022-10-31T06:46:33.402Z,100.00
2022-10-31T06:49:00.403Z,100.00
2022-10-31T06:51:27.244Z,100.00
2022-10-31T06:53:54.141Z,100.00
2022-10-31T06:56:21.018Z,100.00
2022-10-31T06:58:47.881Z,100.00
2022-10-31T07:01:14.965Z,100.00
2022-10-31T07:03:41.851Z,100.00
2022-10-31T07:06:08.677Z,100.00
2022-10-31T07:08:35.508Z,100.00
2022-10-31T07:11:02.521Z,100.00
2022-10-31T07:13:29.426Z,100.00
2022-10-31T07:15:57.026Z,100.00
2022-10-31T07:18:23.838Z,100.00
2022-10-31T07:20:50.753Z,99.91
2022-10-31T07:23:17.686Z,99.50
2022-10-31T07:25:44.738Z,99.48
2022-10-31T07:28:11.834Z,99.55
2022-10-31T07:30:39.284Z,99.60
2022-10-31T07:33:06.747Z,99.46
2022-10-31T07:35:33.884Z,99.51
2022-10-31T07:38:08.282Z,99.57
2022-10-31T07:40:35.206Z,99.41
2022-10-31T07:43:02.107Z,99.37
2022-10-31T07:45:29.003Z,99.10
2022-10-31T07:47:56.026Z,99.10
2022-10-31T07:50:25.268Z,99.33
2022-10-31T07:52:55.407Z,99.08
2022-10-31T07:55:22.333Z,99.07
2022-10-31T07:57:56.511Z,99.01
2022-10-31T08:00:23.405Z,98.95
2022-10-31T08:02:57.843Z,98.99
2022-10-31T08:05:24.825Z,98.92
2022-10-31T08:07:51.756Z,98.86
2022-10-31T08:10:18.695Z,99.21
2022-10-31T08:12:45.822Z,98.96
2022-10-31T08:15:12.784Z,99.16
2022-10-31T08:17:40.481Z,98.59
2022-10-31T08:20:07.681Z,98.29
2022-10-31T08:22:36.008Z,98.15
2022-10-31T08:25:04.675Z,97.92
2022-10-31T08:27:31.770Z,98.09
2022-10-31T08:29:59.658Z,97.85
2022-10-31T08:32:26.631Z,97.78
2022-10-31T08:34:53.549Z,97.58
2022-10-31T08:37:21.178Z,97.59
2022-10-31T08:39:48.833Z,97.71
2022-10-31T08:42:15.877Z,97.61
2022-10-31T08:44:42.841Z,97.59
2022-10-31T08:47:09.703Z,97.95
2022-10-31T08:49:36.775Z,98.06
2022-10-31T08:52:04.006Z,97.97
2022-10-31T08:54:31.034Z,97.45
2022-10-31T08:56:57.992Z,96.73
2022-10-31T08:59:25.004Z,96.49
2022-10-31T09:01:52.127Z,96.18
2022-10-31T09:04:19.152Z,96.63
2022-10-31T09:07:15.207Z,96.34
2022-10-31T09:09:33.025Z,95.83
2022-10-31T09:12:00.306Z,96.04
2022-10-31T09:14:28.009Z,95.75
2022-10-31T09:16:54.931Z,94.80
2022-10-31T09:19:21.833Z,95.58
2022-10-31T09:21:48.730Z,95.86
2022-10-31T09:24:15.738Z,96.31
2022-10-31T09:26:42.694Z,95.47
2022-10-31T09:29:10.853Z,94.51
2022-10-31T09:31:42.291Z,93.56
2022-10-31T09:34:11.622Z,93.67
2022-10-31T09:36:39.456Z,93.72
2022-10-31T09:39:06.797Z,92.89
2022-10-31T09:41:36.818Z,92.41
2022-10-31T09:44:06.914Z,92.45
2022-10-31T09:46:37.292Z,91.52
2022-10-31T09:49:05.841Z,91.13
2022-10-31T09:51:39.011Z,91.00
2022-10-31T09:54:09.139Z,91.08
2022-10-31T09:56:36.820Z,90.35
2022-10-31T09:59:06.393Z,89.95
2022-10-31T10:01:34.683Z,89.39
2022-10-31T10:04:09.279Z,89.86
2022-10-31T10:06:37.939Z,89.77
2022-10-31T10:09:05.053Z,89.22
2022-10-31T10:11:32.295Z,88.40
2022-10-31T10:14:02.356Z,88.56
2022-10-31T10:16:34.647Z,88.71
2022-10-31T10:19:03.012Z,88.10
2022-10-31T10:21:30.302Z,87.94
2022-10-31T10:24:00.435Z,87.52
2022-10-31T10:29:03.686Z,87.36
2022-10-31T10:31:34.902Z,87.25
2022-10-31T10:34:04.988Z,86.93
2022-10-31T10:36:36.000Z,87.11
2022-10-31T10:39:05.752Z,87.75
2022-10-31T10:41:34.738Z,87.45
2022-10-31T10:44:01.905Z,86.98
2022-10-31T10:46:34.967Z,86.32
2022-10-31T10:49:05.013Z,86.04
2022-10-31T10:54:26.315Z,86.34
2022-10-31T10:56:56.306Z,85.46
2022-10-31T10:59:23.937Z,84.67
2022-10-31T11:01:52.758Z,84.26
2022-10-31T11:04:22.781Z,84.58
2022-10-31T11:06:57.439Z,84.25
2022-10-31T11:09:24.393Z,83.60
2022-10-31T11:11:51.390Z,83.65
2022-10-31T11:14:19.094Z,83.38
2022-10-31T11:16:48.909Z,84.76
2022-10-31T11:19:20.319Z,85.69
2022-10-31T11:21:52.834Z,86.28
2022-10-31T11:24:22.545Z,86.31
2022-10-31T11:26:50.468Z,86.05
2022-10-31T11:29:21.666Z,86.34
2022-10-31T11:31:49.738Z,86.05
2022-10-31T11:34:20.486Z,85.86
2022-10-31T11:36:47.631Z,83.97
2022-10-31T11:39:18.405Z,82.98
2022-10-31T11:41:45.739Z,83.00
2022-10-31T11:44:15.709Z,82.68
2022-10-31T11:46:46.488Z,81.68
2022-10-31T11:49:16.536Z,81.48
2022-10-31T11:51:44.015Z,80.54
2022-10-31T11:54:14.089Z,80.47
2022-10-31T11:56:41.960Z,81.20
2022-10-31T11:59:21.636Z,80.41
2022-10-31T12:01:49.863Z,80.60
2022-10-31T12:04:18.435Z,80.35
2022-10-31T12:06:47.658Z,80.19
2022-10-31T12:09:31.555Z,80.10
2022-10-31T12:12:06.865Z,78.96
2022-10-31T12:14:35.229Z,79.50
2022-10-31T12:17:03.289Z,79.08
2022-10-31T12:19:41.749Z,78.38
2022-10-31T12:22:17.823Z,77.60
2022-10-31T12:24:46.142Z,76.87
2022-10-31T12:27:24.229Z,76.95
2022-10-31T12:30:04.316Z,76.55
2022-10-31T12:32:32.106Z,76.78
2022-10-31T12:35:07.221Z,77.49
2022-10-31T12:37:43.865Z,77.90
2022-10-31T12:40:20.692Z,78.41
2022-10-31T12:43:00.943Z,78.32
2022-10-31T12:45:28.410Z,78.68
2022-10-31T12:48:04.717Z,79.53
2022-10-31T12:50:33.106Z,80.15
2022-10-31T12:53:00.947Z,80.22
2022-10-31T12:55:37.757Z,79.50
2022-10-31T12:58:10.898Z,78.95
2022-10-31T13:00:42.057Z,78.58
2022-10-31T13:03:18.723Z,78.74
2022-10-31T13:05:48.408Z,78.77
2022-10-31T13:08:18.813Z,78.31
2022-10-31T13:10:49.257Z,78.31
2022-10-31T13:13:19.957Z,78.54
2022-10-31T13:15:49.405Z,78.95
2022-10-31T13:18:23.258Z,79.02
2022-10-31T13:20:55.536Z,79.87
2022-10-31T13:23:49.067Z,78.81
2022-10-31T13:26:13.599Z,78.13
2022-10-31T13:28:46.790Z,78.92
2022-10-31T13:31:13.954Z,81.55
2022-10-31T13:33:41.296Z,80.94
2022-10-31T13:36:16.652Z,79.75
2022-10-31T13:38:44.857Z,78.42
2022-10-31T13:41:21.705Z,78.26
2022-10-31T13:43:51.858Z,78.33
2022-10-31T13:46:24.507Z,78.71
2022-10-31T13:48:51.622Z,78.40
2022-10-31T13:51:29.583Z,78.50
2022-10-31T13:53:56.729Z,79.03
2022-10-31T13:56:31.954Z,79.15
2022-10-31T13:59:00.147Z,80.00
2022-10-31T14:01:30.130Z,80.26
2022-10-31T14:04:14.846Z,80.44
2022-10-31T14:06:43.957Z,79.65
2022-10-31T14:09:20.740Z,79.00
2022-10-31T14:11:49.188Z,78.81
2022-10-31T14:14:16.722Z,79.29
2022-10-31T14:16:46.229Z,79.44
2022-10-31T14:19:18.998Z,79.03
2022-10-31T14:21:48.352Z,79.39
2022-10-31T14:24:30.081Z,80.07
2022-10-31T14:26:58.476Z,79.90
2022-10-31T14:29:26.212Z,80.25
2022-10-31T14:31:55.391Z,79.50
2022-10-31T14:34:23.492Z,79.50
2022-10-31T14:36:53.630Z,79.00
2022-10-31T14:39:27.720Z,79.67
2022-10-31T14:42:03.195Z,79.40
2022-10-31T14:44:39.744Z,79.93
2022-10-31T14:47:09.885Z,79.69
2022-10-31T14:49:48.680Z,79.43
2022-10-31T14:52:17.843Z,80.74
2022-10-31T14:54:49.291Z,80.40
2022-10-31T14:57:18.196Z,79.53
2022-10-31T14:59:50.039Z,79.38
2022-10-31T15:02:17.642Z,80.11
2022-10-31T15:04:45.944Z,79.90
2022-10-31T15:07:21.706Z,78.92
2022-10-31T15:09:59.715Z,78.73
2022-10-31T15:12:28.736Z,79.69
2022-10-31T15:14:56.663Z,81.54
2022-10-31T15:17:25.015Z,81.27
2022-10-31T15:19:52.616Z,80.18
2022-10-31T15:22:20.985Z,79.57
2022-10-31T15:24:49.734Z,80.06
2022-10-31T15:27:18.146Z,79.85
2022-10-31T15:29:54.765Z,80.54
2022-10-31T15:32:24.328Z,80.38
2022-10-31T15:34:52.570Z,79.78
2022-10-31T15:37:21.252Z,80.33
2022-10-31T15:39:50.240Z,80.65
2022-10-31T15:42:17.392Z,80.76
2022-10-31T15:44:45.204Z,80.25
2022-10-31T15:47:21.612Z,80.63
2022-10-31T15:49:51.970Z,81.96
2022-10-31T15:52:25.050Z,82.03
2022-10-31T15:54:53.600Z,82.68
2022-10-31T15:57:20.589Z,82.70
2022-10-31T15:59:49.425Z,82.30
2022-10-31T16:02:20.546Z,82.27
2022-10-31T16:04:49.896Z,82.10
2022-10-31T16:07:22.980Z,81.79
2022-10-31T16:09:57.997Z,82.45
2022-10-31T16:12:26.288Z,81.75
2022-10-31T16:14:54.792Z,81.29
2022-10-31T16:17:23.548Z,81.71
2022-10-31T16:19:54.106Z,81.28
2022-10-31T16:22:23.215Z,81.11
2022-10-31T16:24:54.635Z,81.27
2022-10-31T16:27:33.612Z,81.64
2022-10-31T16:30:02.843Z,82.19
2022-10-31T16:32:30.215Z,81.42
2022-10-31T16:35:03.502Z,81.78
2022-10-31T16:37:30.738Z,80.97
2022-10-31T16:39:57.801Z,80.84
2022-10-31T16:42:26.266Z,81.01
2022-10-31T16:44:53.403Z,80.46
2022-10-31T16:47:23.304Z,81.38
2022-10-31T16:49:55.456Z,81.03
2022-10-31T16:52:22.638Z,80.46
2022-10-31T16:54:50.161Z,80.15
2022-10-31T16:57:19.810Z,80.14
2022-10-31T16:59:50.165Z,79.58
2022-10-31T17:02:18.148Z,79.66
2022-10-31T17:04:45.616Z,79.72
2022-10-31T17:07:12.704Z,80.01
2022-10-31T17:09:39.750Z,79.89
2022-10-31T17:12:08.530Z,80.21
2022-10-31T17:14:35.772Z,80.41
2022-10-31T17:17:03.005Z,81.35
2022-10-31T17:19:29.994Z,81.83
2022-10-31T17:21:57.013Z,81.53
2022-10-31T17:24:24.044Z,82.05
2022-10-31T17:26:51.298Z,83.33
2022-10-31T17:29:18.847Z,84.27
2022-10-31T17:31:45.873Z,85.59
2022-10-31T17:34:12.960Z,87.28
2022-10-31T17:36:39.985Z,88.02
2022-10-31T17:39:09.926Z,89.15
2022-10-31T17:41:36.963Z,89.46
2022-10-31T17:44:04.403Z,89.82
2022-10-31T17:46:31.669Z,90.68
2022-10-31T17:49:03.902Z,92.07
2022-10-31T17:51:31.150Z,92.77
2022-10-31T17:53:58.992Z,93.29
2022-10-31T17:56:26.268Z,93.68
2022-10-31T17:58:53.382Z,93.75
2022-10-31T18:01:20.650Z,94.61
2022-10-31T18:03:47.838Z,95.71
2022-10-31T18:06:17.213Z,96.25
2022-10-31T18:08:48.145Z,96.29
2022-10-31T18:11:17.843Z,96.52
2022-10-31T18:13:45.270Z,96.77
2022-10-31T18:16:14.369Z,97.08
2022-10-31T18:18:42.454Z,97.26
2022-10-31T18:21:09.539Z,97.42
2022-10-31T18:23:36.469Z,97.90
2022-10-31T18:26:04.661Z,97.63
2022-10-31T18:28:31.916Z,97.63
2022-10-31T18:31:01.831Z,97.91
2022-10-31T18:33:29.581Z,97.95
2022-10-31T18:35:57.370Z,98.73
2022-10-31T18:38:24.567Z,98.89
2022-10-31T18:40:52.083Z,99.26
2022-10-31T18:43:19.233Z,98.86
2022-10-31T18:45:49.416Z,99.00
2022-10-31T18:48:17.753Z,98.93
2022-10-31T18:50:45.079Z,99.35
2022-10-31T18:53:12.251Z,99.83
2022-10-31T18:55:43.849Z,99.85
2022-10-31T18:58:14.573Z,99.91
2022-10-31T19:00:41.869Z,99.79
2022-10-31T19:03:12.078Z,99.78
2022-10-31T19:05:39.132Z,99.86
2022-10-31T19:08:06.413Z,100.00
2022-10-31T19:10:35.996Z,100.00
2022-10-31T19:13:03.259Z,100.00
2022-10-31T19:15:30.619Z,100.00
2022-10-31T19:17:57.569Z,100.00
2022-10-31T19:20:25.598Z,100.00
2022-10-31T19:22:52.641Z,100.00
2022-10-31T19:25:19.712Z,100.00
2022-10-31T19:27:46.628Z,100.00
2022-10-31T19:30:13.743Z,100.00
2022-10-31T19:32:40.989Z,100.00
2022-10-31T19:35:09.609Z,100.00
2022-10-31T19:37:37.780Z,100.00
2022-10-31T19:40:06.219Z,100.00
2022-10-31T19:42:33.569Z,100.00
2022-10-31T19:45:01.036Z,100.00
2022-10-31T19:47:28.030Z,100.00
2022-10-31T19:49:55.585Z,100.00
2022-10-31T19:52:22.857Z,100.00
2022-10-31T19:54:49.622Z,100.00
2022-10-31T19:57:16.599Z,100.00
2022-10-31T19:59:44.055Z,100.00
2022-10-31T20:02:19.918Z,100.00
2022-10-31T20:04:47.046Z,100.00
2022-10-31T20:07:14.010Z,100.00
2022-10-31T20:09:40.875Z,100.00
2022-10-31T20:12:08.140Z,100.00
2022-10-31T20:14:35.171Z,100.00
2022-10-31T20:17:02.075Z,100.00
2022-10-31T20:19:29.162Z,100.00
2022-10-31T20:21:56.036Z,100.00
2022-10-31T20:24:22.990Z,100.00
2022-10-31T20:26:49.802Z,100.00
2022-10-31T20:29:17.035Z,100.00
2022-10-31T20:31:45.097Z,100.00
2022-10-31T20:34:12.156Z,100.00
2022-10-31T20:36:39.222Z,100.00
2022-10-31T20:39:06.298Z,100.00
2022-10-31T20:41:33.166Z,100.00
2022-10-31T20:44:00.094Z,100.00
2022-10-31T20:46:27.685Z,100.00
2022-10-31T20:48:55.536Z,100.00
2022-10-31T20:51:23.807Z,100.00
2022-10-31T20:53:51.908Z,100.00
2022-10-31T20:56:20.138Z,100.00
2022-10-31T20:58:47.242Z,99.88
2022-10-31T21:01:15.930Z,99.04
2022-10-31T21:03:43.519Z,98.63
2022-10-31T21:06:10.577Z,97.48
2022-10-31T21:08:38.163Z,96.95
2022-10-31T21:11:07.928Z,97.53
2022-10-31T21:13:40.633Z,97.96
2022-10-31T21:16:09.583Z,98.39
2022-10-31T21:18:37.608Z,98.16
2022-10-31T21:21:21.221Z,98.40
2022-10-31T21:23:48.631Z,98.85
2022-10-31T21:26:18.824Z,98.83
2022-10-31T21:28:45.686Z,98.82
2022-10-31T21:31:13.571Z,99.40
2022-10-31T21:33:41.057Z,99.68
2022-10-31T21:36:08.391Z,99.82
2022-10-31T21:38:35.872Z,100.00
2022-10-31T21:41:03.997Z,100.00
2022-10-31T21:43:31.460Z,100.00
2022-10-31T21:46:07.230Z,100.00
2022-10-31T21:48:35.233Z,100.00
2022-10-31T21:51:05.956Z,100.00
2022-10-31T21:53:42.410Z,100.00
2022-10-31T21:56:09.200Z,100.00
2022-10-31T21:58:38.580Z,100.00
2022-10-31T22:01:05.910Z,100.00
2022-10-31T22:03:36.457Z,100.00
2022-10-31T22:06:04.306Z,100.00
2022-10-31T22:08:31.909Z,100.00
2022-10-31T22:11:02.748Z,100.00
2022-10-31T22:13:30.748Z,100.00
2022-10-31T22:16:01.990Z,100.00
2022-10-31T22:18:29.453Z,100.00
2022-10-31T22:21:05.630Z,100.00
2022-10-31T22:23:32.620Z,100.00
2022-10-31T22:26:04.084Z,100.00
2022-10-31T22:28:31.315Z,100.00
2022-10-31T22:30:58.242Z,100.00
2022-10-31T22:33:25.615Z,100.00
2022-10-31T22:35:52.354Z,100.00
2022-10-31T22:38:19.125Z,100.00
2022-10-31T22:40:45.856Z,100.00
2022-10-31T22:43:12.732Z,100.00
2022-10-31T22:45:39.639Z,100.00
2022-10-31T22:48:06.910Z,100.00
2022-10-31T22:50:34.675Z,100.00
2022-10-31T22:53:01.354Z,100.00
2022-10-31T22:55:28.105Z,100.00
2022-10-31T22:57:54.831Z,99.01
2022-10-31T23:00:21.624Z,98.45
2022-10-31T23:02:48.398Z,98.95
2022-10-31T23:05:15.384Z,98.56
2022-10-31T23:07:42.150Z,97.83
2022-10-31T23:10:09.295Z,95.87
2022-10-31T23:12:45.415Z,95.92
2022-10-31T23:15:12.305Z,95.69
2022-10-31T23:17:39.400Z,92.50
2022-10-31T23:20:07.279Z,92.27
2022-10-31T23:22:33.976Z,92.98
2022-10-31T23:25:00.809Z,93.08
2022-10-31T23:27:27.778Z,93.26
2022-10-31T23:29:56.551Z,93.13
2022-10-31T23:32:25.356Z,93.11
2022-10-31T23:34:53.443Z,92.66
2022-10-31T23:37:21.660Z,91.40
2022-10-31T23:39:49.147Z,91.52
2022-10-31T23:42:16.299Z,91.89
2022-10-31T23:44:43.319Z,90.51
2022-10-31T23:47:10.681Z,90.89
2022-10-31T23:49:42.586Z,89.57
2022-10-31T23:52:09.968Z,89.70
2022-10-31T23:54:37.038Z,89.38
2022-10-31T23:57:04.019Z,88.77
2022-10-31T23:59:31.349Z,87.59
